首页
METAR-TAF:

METAR-TAF

机场 :

科托卡国际机场

阿克拉, 加纳

纬度: 05-36N, 经度: 000-10W, 海拔: 68米

当前天气观测

该预报发布于50分钟前的12:00 UTC
风速7节,风向,在南转南东南转西南之间变化
温度 32°C
湿度 59%
气压 1011 hPa
能见度10公里或以上
少量云层高于3500英尺

METAR: DGAA 181200Z 18007KT 150V210 9999 FEW035 32/23 Q1011 NOSIG

时间: 12:50 (12:50 UTC)

预报

该预报发布于1小时和50分钟前的11:00 UTC
预报有效从18日的 12点(UTC)到 19日的 18点(UTC)
风速10节,风向
能见度10公里或以上
散云层高于2500英尺
短暂存在
从 18日的 15点(UTC)到 18日的 19点(UTC)
少量云层高于3000英尺, 积雨云.
成为
从 19日的 02点(UTC)到 19日的 04点(UTC)
风速5节,风向西
能见度10公里或以上
1500米以下无云,无积雨云
短暂存在
从 19日的 05点(UTC)到 19日的 09点(UTC)
能見度: 8000
少量云层高于1600英尺
从 19日的 1300点(UTC)
风速12节,风向南转西南
能见度10公里或以上
少量云层高于2500英尺

TAF: DGAA 181100Z 1812/1918 19010KT 9999 SCT025 TEMPO 1815/1819 FEW030CB BECMG 1902/1904 27005KT CAVOK TEMPO 1905/1909 8000 FEW016 FM191300 20012KT 9999 FEW025

超过4000个机场的气象观测和天气预报(METAR&TAF报告)。

可查询的气象台以黄色和红色小点在地图上表示。

将鼠标移到小点上方,可查看气象台名称。

然后点击查看天气观测和预报。

如需切换地图:点击带黑十字的绿色按钮放大地图;点击带横线的绿色按钮缩小地图;或者点击绿色箭头查看邻近地区的地图。


METAR-TAF: